sensor_id;sensor_type;location;lat;lon;timestamp;pressure;altitude;pressure_sealevel;temperature;humidity
25869;BME280;13688;53.154;18.136;2022-10-31T00:02:16;101279.11;;;9.88;100.00
25869;BME280;13688;53.154;18.136;2022-10-31T00:07:39;101272.13;;;9.85;100.00
25869;BME280;13688;53.154;18.136;2022-10-31T00:13:01;101271.27;;;9.85;100.00
25869;BME280;13688;53.154;18.136;2022-10-31T00:18:24;101272.13;;;9.85;100.00
25869;BME280;13688;53.154;18.136;2022-10-31T00:23:46;101269.18;;;9.75;100.00
25869;BME280;13688;53.154;18.136;2022-10-31T00:29:09;101273.42;;;9.65;100.00
25869;BME280;13688;53.154;18.136;2022-10-31T00:34:32;101266.90;;;9.55;100.00
25869;BME280;13688;53.154;18.136;2022-10-31T00:39:54;101265.49;;;9.50;100.00
25869;BME280;13688;53.154;18.136;2022-10-31T00:45:17;101267.91;;;9.40;100.00
25869;BME280;13688;53.154;18.136;2022-10-31T00:50:39;101268.88;;;9.39;100.00
25869;BME280;13688;53.154;18.136;2022-10-31T00:56:01;101274.62;;;9.33;100.00
25869;BME280;13688;53.154;18.136;2022-10-31T01:01:23;101276.81;;;9.26;100.00
25869;BME280;13688;53.154;18.136;2022-10-31T01:06:46;101292.85;;;9.28;100.00
25869;BME280;13688;53.154;18.136;2022-10-31T01:12:09;101286.90;;;9.23;100.00
25869;BME280;13688;53.154;18.136;2022-10-31T01:17:31;101286.90;;;9.23;100.00
25869;BME280;13688;53.154;18.136;2022-10-31T01:22:54;101282.80;;;9.17;100.00
25869;BME280;13688;53.154;18.136;2022-10-31T01:28:16;101286.81;;;9.10;100.00
25869;BME280;13688;53.154;18.136;2022-10-31T01:33:38;101283.55;;;9.05;100.00
25869;BME280;13688;53.154;18.136;2022-10-31T01:39:04;101284.70;;;9.01;100.00
25869;BME280;13688;53.154;18.136;2022-10-31T01:49:59;101280.41;;;8.98;100.00
25869;BME280;13688;53.154;18.136;2022-10-31T01:55:41;101279.44;;;8.99;100.00
25869;BME280;13688;53.154;18.136;2022-10-31T02:01:05;101273.48;;;8.94;100.00
25869;BME280;13688;53.154;18.136;2022-10-31T02:06:33;101284.21;;;8.94;100.00
25869;BME280;13688;53.154;18.136;2022-10-31T02:11:58;101278.75;;;8.96;100.00
25869;BME280;13688;53.154;18.136;2022-10-31T02:17:21;101278.75;;;8.96;100.00
25869;BME280;13688;53.154;18.136;2022-10-31T02:34:48;101289.31;;;8.99;100.00
25869;BME280;13688;53.154;18.136;2022-10-31T02:40:23;101301.76;;;9.00;100.00
25869;BME280;13688;53.154;18.136;2022-10-31T02:51:29;101297.36;;;8.99;100.00
25869;BME280;13688;53.154;18.136;2022-10-31T02:56:59;101295.33;;;9.02;100.00
25869;BME280;13688;53.154;18.136;2022-10-31T03:14:00;101299.06;;;9.14;100.00
25869;BME280;13688;53.154;18.136;2022-10-31T03:19:40;101302.63;;;9.00;100.00
25869;BME280;13688;53.154;18.136;2022-10-31T03:25:04;101304.23;;;9.03;100.00
25869;BME280;13688;53.154;18.136;2022-10-31T03:30:27;101316.13;;;8.99;100.00
25869;BME280;13688;53.154;18.136;2022-10-31T03:35:51;101316.03;;;9.00;100.00
25869;BME280;13688;53.154;18.136;2022-10-31T03:41:20;101310.20;;;9.08;100.00
25869;BME280;13688;53.154;18.136;2022-10-31T03:46:44;101319.97;;;9.09;100.00
25869;BME280;13688;53.154;18.136;2022-10-31T03:52:26;101314.50;;;9.10;100.00
25869;BME280;13688;53.154;18.136;2022-10-31T03:58:10;101314.70;;;9.07;100.00
25869;BME280;13688;53.154;18.136;2022-10-31T04:03:43;101316.79;;;9.02;100.00
25869;BME280;13688;53.154;18.136;2022-10-31T04:09:08;101310.56;;;9.02;100.00
25869;BME280;13688;53.154;18.136;2022-10-31T04:14:33;101319.77;;;8.98;100.00
25869;BME280;13688;53.154;18.136;2022-10-31T04:20:01;101315.93;;;9.02;100.00
25869;BME280;13688;53.154;18.136;2022-10-31T04:25:23;101309.91;;;8.98;100.00
25869;BME280;13688;53.154;18.136;2022-10-31T04:30:47;101316.70;;;8.89;100.00
25869;BME280;13688;53.154;18.136;2022-10-31T04:36:09;101313.31;;;8.86;100.00
25869;BME280;13688;53.154;18.136;2022-10-31T04:41:31;101317.16;;;8.82;100.00
25869;BME280;13688;53.154;18.136;2022-10-31T04:46:54;101318.47;;;8.75;100.00
25869;BME280;13688;53.154;18.136;2022-10-31T04:52:16;101319.17;;;8.78;100.00
25869;BME280;13688;53.154;18.136;2022-10-31T04:57:41;101321.05;;;8.76;100.00
25869;BME280;13688;53.154;18.136;2022-10-31T05:03:04;101320.03;;;8.79;100.00
25869;BME280;13688;53.154;18.136;2022-10-31T05:08:27;101312.91;;;8.78;100.00
25869;BME280;13688;53.154;18.136;2022-10-31T05:13:49;101326.42;;;8.76;100.00
25869;BME280;13688;53.154;18.136;2022-10-31T05:19:11;101321.35;;;8.72;100.00
25869;BME280;13688;53.154;18.136;2022-10-31T05:24:34;101324.30;;;8.67;100.00
25869;BME280;13688;53.154;18.136;2022-10-31T05:29:56;101329.59;;;8.69;100.00
25869;BME280;13688;53.154;18.136;2022-10-31T05:35:28;101327.83;;;8.68;100.00
25869;BME280;13688;53.154;18.136;2022-10-31T05:40:47;101342.10;;;8.68;100.00
25869;BME280;13688;53.154;18.136;2022-10-31T05:46:12;101342.89;;;8.70;100.00
25869;BME280;13688;53.154;18.136;2022-10-31T05:51:34;101345.67;;;8.69;100.00
25869;BME280;13688;53.154;18.136;2022-10-31T05:56:56;101346.80;;;8.65;100.00
25869;BME280;13688;53.154;18.136;2022-10-31T06:02:19;101345.93;;;8.64;100.00
25869;BME280;13688;53.154;18.136;2022-10-31T06:07:43;101351.96;;;8.68;100.00
25869;BME280;13688;53.154;18.136;2022-10-31T06:13:07;101358.13;;;8.70;100.00
25869;BME280;13688;53.154;18.136;2022-10-31T06:18:29;101362.52;;;8.71;100.00
25869;BME280;13688;53.154;18.136;2022-10-31T06:23:51;101376.80;;;8.71;100.00
25869;BME280;13688;53.154;18.136;2022-10-31T06:29:14;101380.78;;;8.64;100.00
25869;BME280;13688;53.154;18.136;2022-10-31T06:34:36;101381.64;;;8.65;100.00
25869;BME280;13688;53.154;18.136;2022-10-31T06:39:58;101375.23;;;8.67;100.00
25869;BME280;13688;53.154;18.136;2022-10-31T06:45:21;101382.63;;;8.78;100.00
25869;BME280;13688;53.154;18.136;2022-10-31T06:50:43;101375.55;;;8.77;100.00
25869;BME280;13688;53.154;18.136;2022-10-31T06:56:08;101379.28;;;8.74;100.00
25869;BME280;13688;53.154;18.136;2022-10-31T07:01:31;101383.88;;;8.72;100.00
25869;BME280;13688;53.154;18.136;2022-10-31T07:06:55;101395.46;;;8.73;100.00
25869;BME280;13688;53.154;18.136;2022-10-31T07:12:17;101401.23;;;8.81;100.00
25869;BME280;13688;53.154;18.136;2022-10-31T07:17:39;101406.86;;;8.76;100.00
25869;BME280;13688;53.154;18.136;2022-10-31T07:23:02;101402.32;;;8.93;100.00
25869;BME280;13688;53.154;18.136;2022-10-31T07:28:25;101408.90;;;8.87;100.00
25869;BME280;13688;53.154;18.136;2022-10-31T07:33:48;101414.77;;;8.94;100.00
25869;BME280;13688;53.154;18.136;2022-10-31T07:39:11;101419.17;;;8.95;100.00
25869;BME280;13688;53.154;18.136;2022-10-31T07:44:33;101422.14;;;8.90;100.00
25869;BME280;13688;53.154;18.136;2022-10-31T07:49:55;101430.19;;;8.90;100.00
25869;BME280;13688;53.154;18.136;2022-10-31T07:55:19;101439.00;;;8.92;100.00
25869;BME280;13688;53.154;18.136;2022-10-31T08:00:43;101443.06;;;8.99;100.00
25869;BME280;13688;53.154;18.136;2022-10-31T08:06:06;101444.48;;;9.05;100.00
25869;BME280;13688;53.154;18.136;2022-10-31T08:11:28;101447.17;;;9.05;100.00
25869;BME280;13688;53.154;18.136;2022-10-31T08:16:52;101444.39;;;9.06;100.00
25869;BME280;13688;53.154;18.136;2022-10-31T08:22:14;101447.56;;;8.99;100.00
25869;BME280;13688;53.154;18.136;2022-10-31T08:27:37;101443.86;;;8.85;100.00
25869;BME280;13688;53.154;18.136;2022-10-31T08:33:15;101442.26;;;8.97;100.00
25869;BME280;13688;53.154;18.136;2022-10-31T08:38:34;101444.17;;;8.95;100.00
25869;BME280;13688;53.154;18.136;2022-10-31T08:43:56;101454.36;;;9.04;100.00
25869;BME280;13688;53.154;18.136;2022-10-31T08:49:18;101451.53;;;9.22;100.00
25869;BME280;13688;53.154;18.136;2022-10-31T08:54:41;101434.94;;;9.15;100.00
25869;BME280;13688;53.154;18.136;2022-10-31T09:00:03;101438.98;;;9.22;100.00
25869;BME280;13688;53.154;18.136;2022-10-31T09:05:26;101441.77;;;9.35;100.00
25869;BME280;13688;53.154;18.136;2022-10-31T09:10:49;101442.82;;;9.18;100.00
25869;BME280;13688;53.154;18.136;2022-10-31T09:16:12;101441.11;;;9.31;100.00
25869;BME280;13688;53.154;18.136;2022-10-31T09:21:34;101447.44;;;9.44;100.00
25869;BME280;13688;53.154;18.136;2022-10-31T09:26:58;101461.25;;;9.38;100.00
25869;BME280;13688;53.154;18.136;2022-10-31T09:32:20;101465.47;;;9.42;100.00
25869;BME280;13688;53.154;18.136;2022-10-31T09:37:42;101474.22;;;9.46;100.00
25869;BME280;13688;53.154;18.136;2022-10-31T09:43:34;101473.25;;;9.47;100.00
25869;BME280;13688;53.154;18.136;2022-10-31T09:54:57;101473.85;;;9.66;100.00
25869;BME280;13688;53.154;18.136;2022-10-31T10:00:24;101480.83;;;9.83;100.00
25869;BME280;13688;53.154;18.136;2022-10-31T10:12:05;101482.00;;;9.79;100.00
25869;BME280;13688;53.154;18.136;2022-10-31T10:28:56;101478.27;;;9.96;100.00
25869;BME280;13688;53.154;18.136;2022-10-31T10:34:21;101475.75;;;10.07;100.00
25869;BME280;13688;53.154;18.136;2022-10-31T10:39:55;101467.59;;;10.09;100.00
25869;BME280;13688;53.154;18.136;2022-10-31T10:45:20;101474.13;;;10.04;100.00
25869;BME280;13688;53.154;18.136;2022-10-31T10:51:00;101455.39;;;10.03;100.00
25869;BME280;13688;53.154;18.136;2022-10-31T11:02:32;101481.70;;;9.98;100.00
25869;BME280;13688;53.154;18.136;2022-10-31T11:07:56;101474.69;;;10.10;100.00
25869;BME280;13688;53.154;18.136;2022-10-31T11:13:21;101461.42;;;10.21;100.00
25869;BME280;13688;53.154;18.136;2022-10-31T11:18:47;101453.84;;;10.13;100.00
25869;BME280;13688;53.154;18.136;2022-10-31T11:24:15;101442.23;;;10.13;100.00
25869;BME280;13688;53.154;18.136;2022-10-31T11:29:39;101447.03;;;10.36;100.00
25869;BME280;13688;53.154;18.136;2022-10-31T11:35:09;101454.52;;;10.31;100.00
25869;BME280;13688;53.154;18.136;2022-10-31T11:40:30;101459.90;;;10.31;100.00
25869;BME280;13688;53.154;18.136;2022-10-31T11:45:53;101451.34;;;10.39;100.00
25869;BME280;13688;53.154;18.136;2022-10-31T11:51:23;101461.28;;;10.24;100.00
25869;BME280;13688;53.154;18.136;2022-10-31T11:56:48;101467.86;;;10.32;100.00
25869;BME280;13688;53.154;18.136;2022-10-31T12:02:16;101467.86;;;10.32;100.00
25869;BME280;13688;53.154;18.136;2022-10-31T12:07:38;101470.73;;;10.44;100.00
25869;BME280;13688;53.154;18.136;2022-10-31T12:13:11;101464.57;;;10.42;100.00
25869;BME280;13688;53.154;18.136;2022-10-31T12:18:45;101458.16;;;10.44;100.00
25869;BME280;13688;53.154;18.136;2022-10-31T12:24:18;101465.53;;;10.41;100.00
25869;BME280;13688;53.154;18.136;2022-10-31T12:29:48;101455.91;;;10.51;100.00
25869;BME280;13688;53.154;18.136;2022-10-31T12:46:55;101451.96;;;10.56;100.00
25869;BME280;13688;53.154;18.136;2022-10-31T12:52:48;101456.98;;;10.48;100.00
25869;BME280;13688;53.154;18.136;2022-10-31T12:58:31;101444.75;;;10.57;100.00
25869;BME280;13688;53.154;18.136;2022-10-31T13:04:14;101446.98;;;10.50;100.00
25869;BME280;13688;53.154;18.136;2022-10-31T13:10:02;101448.80;;;10.50;100.00
25869;BME280;13688;53.154;18.136;2022-10-31T13:16:22;101432.42;;;10.67;100.00
25869;BME280;13688;53.154;18.136;2022-10-31T13:27:35;101429.48;;;10.57;100.00
25869;BME280;13688;53.154;18.136;2022-10-31T13:33:02;101431.31;;;10.57;100.00
25869;BME280;13688;53.154;18.136;2022-10-31T13:38:56;101428.02;;;10.66;100.00
25869;BME280;13688;53.154;18.136;2022-10-31T13:44:27;101436.47;;;10.60;100.00
25869;BME280;13688;53.154;18.136;2022-10-31T13:49:48;101431.52;;;10.54;100.00
25869;BME280;13688;53.154;18.136;2022-10-31T13:56:27;101421.62;;;10.54;100.00
25869;BME280;13688;53.154;18.136;2022-10-31T14:01:24;101425.64;;;10.62;100.00
25869;BME280;13688;53.154;18.136;2022-10-31T14:12:46;101427.61;;;10.72;100.00
25869;BME280;13688;53.154;18.136;2022-10-31T14:18:39;101420.91;;;10.65;100.00
25869;BME280;13688;53.154;18.136;2022-10-31T14:24:51;101415.17;;;10.57;100.00
25869;BME280;13688;53.154;18.136;2022-10-31T14:29:37;101417.97;;;10.55;100.00
25869;BME280;13688;53.154;18.136;2022-10-31T14:35:01;101413.13;;;10.60;100.00
25869;BME280;13688;53.154;18.136;2022-10-31T14:40:46;101410.02;;;10.54;100.00
25869;BME280;13688;53.154;18.136;2022-10-31T14:46:50;101407.33;;;10.54;100.00
25869;BME280;13688;53.154;18.136;2022-10-31T14:52:24;101420.88;;;10.52;100.00
25869;BME280;13688;53.154;18.136;2022-10-31T14:57:55;101429.59;;;10.56;100.00
25869;BME280;13688;53.154;18.136;2022-10-31T15:03:40;101422.59;;;10.53;100.00
25869;BME280;13688;53.154;18.136;2022-10-31T15:09:20;101425.08;;;10.56;100.00
25869;BME280;13688;53.154;18.136;2022-10-31T15:14:41;101434.39;;;10.51;100.00
25869;BME280;13688;53.154;18.136;2022-10-31T15:20:05;101431.92;;;10.48;100.00
25869;BME280;13688;53.154;18.136;2022-10-31T15:25:32;101430.95;;;10.49;100.00
25869;BME280;13688;53.154;18.136;2022-10-31T15:30:59;101432.78;;;10.48;100.00
25869;BME280;13688;53.154;18.136;2022-10-31T15:36:25;101435.58;;;10.47;100.00
25869;BME280;13688;53.154;18.136;2022-10-31T15:41:59;101436.44;;;10.47;100.00
25869;BME280;13688;53.154;18.136;2022-10-31T15:47:23;101434.61;;;10.48;100.00
25869;BME280;13688;53.154;18.136;2022-10-31T15:52:49;101439.88;;;10.49;100.00
25869;BME280;13688;53.154;18.136;2022-10-31T15:58:20;101446.12;;;10.50;100.00
25869;BME280;13688;53.154;18.136;2022-10-31T16:03:43;101443.32;;;10.51;100.00
25869;BME280;13688;53.154;18.136;2022-10-31T16:09:26;101438.84;;;10.52;100.00
25869;BME280;13688;53.154;18.136;2022-10-31T16:14:50;101445.83;;;10.54;100.00
25869;BME280;13688;53.154;18.136;2022-10-31T16:20:18;101451.96;;;10.56;100.00
25869;BME280;13688;53.154;18.136;2022-10-31T16:25:42;101449.16;;;10.58;100.00
25869;BME280;13688;53.154;18.136;2022-10-31T16:31:14;101444.65;;;10.58;100.00
25869;BME280;13688;53.154;18.136;2022-10-31T16:36:43;101448.09;;;10.60;100.00
25869;BME280;13688;53.154;18.136;2022-10-31T16:42:07;101452.61;;;10.60;100.00
25869;BME280;13688;53.154;18.136;2022-10-31T16:47:29;101453.58;;;10.59;100.00
25869;BME280;13688;53.154;18.136;2022-10-31T16:52:52;101457.23;;;10.58;100.00
25869;BME280;13688;53.154;18.136;2022-10-31T16:58:23;101460.89;;;10.57;100.00
25869;BME280;13688;53.154;18.136;2022-10-31T17:03:47;101451.10;;;10.56;100.00
25869;BME280;13688;53.154;18.136;2022-10-31T17:09:09;101454.76;;;10.55;100.00
25869;BME280;13688;53.154;18.136;2022-10-31T17:14:32;101452.28;;;10.52;100.00
25869;BME280;13688;53.154;18.136;2022-10-31T17:19:54;101450.53;;;10.51;100.00
25869;BME280;13688;53.154;18.136;2022-10-31T17:25:19;101456.77;;;10.51;100.00
25869;BME280;13688;53.154;18.136;2022-10-31T17:30:45;101457.55;;;10.53;100.00
25869;BME280;13688;53.154;18.136;2022-10-31T17:36:11;101453.03;;;10.54;100.00
25869;BME280;13688;53.154;18.136;2022-10-31T17:41:34;101462.14;;;10.51;100.00
25869;BME280;13688;53.154;18.136;2022-10-31T17:46:57;101445.08;;;10.52;100.00
25869;BME280;13688;53.154;18.136;2022-10-31T17:52:19;101441.59;;;10.50;100.00
25869;BME280;13688;53.154;18.136;2022-10-31T17:57:41;101440.84;;;10.48;100.00
25869;BME280;13688;53.154;18.136;2022-10-31T18:03:04;101447.30;;;10.46;100.00
25869;BME280;13688;53.154;18.136;2022-10-31T18:08:32;101446.33;;;10.47;100.00
25869;BME280;13688;53.154;18.136;2022-10-31T18:14:01;101452.45;;;10.49;100.00
25869;BME280;13688;53.154;18.136;2022-10-31T18:19:24;101448.05;;;10.48;100.00
25869;BME280;13688;53.154;18.136;2022-10-31T18:24:47;101448.91;;;10.48;100.00
25869;BME280;13688;53.154;18.136;2022-10-31T18:30:11;101438.84;;;10.52;100.00
25869;BME280;13688;53.154;18.136;2022-10-31T18:35:34;101436.80;;;10.55;100.00
25869;BME280;13688;53.154;18.136;2022-10-31T18:40:57;101435.08;;;10.54;100.00
25869;BME280;13688;53.154;18.136;2022-10-31T18:46:20;101441.59;;;10.50;100.00
25869;BME280;13688;53.154;18.136;2022-10-31T18:51:43;101435.25;;;10.51;100.00
25869;BME280;13688;53.154;18.136;2022-10-31T18:57:05;101446.80;;;10.53;100.00
25869;BME280;13688;53.154;18.136;2022-10-31T19:02:28;101438.62;;;10.55;100.00
25869;BME280;13688;53.154;18.136;2022-10-31T19:07:51;101443.25;;;10.53;100.00
25869;BME280;13688;53.154;18.136;2022-10-31T19:13:13;101437.87;;;10.53;100.00
25869;BME280;13688;53.154;18.136;2022-10-31T19:18:36;101436.33;;;10.49;100.00
25869;BME280;13688;53.154;18.136;2022-10-31T19:23:59;101441.70;;;10.49;100.00
25869;BME280;13688;53.154;18.136;2022-10-31T19:29:22;101438.05;;;10.50;100.00
25869;BME280;13688;53.154;18.136;2022-10-31T19:34:44;101432.67;;;10.50;100.00
25869;BME280;13688;53.154;18.136;2022-10-31T19:40:07;101422.78;;;10.50;100.00
25869;BME280;13688;53.154;18.136;2022-10-31T19:45:30;101422.78;;;10.50;100.00
25869;BME280;13688;53.154;18.136;2022-10-31T19:50:52;101419.05;;;10.53;100.00
25869;BME280;13688;53.154;18.136;2022-10-31T19:56:22;101416.36;;;10.53;100.00
25869;BME280;13688;53.154;18.136;2022-10-31T20:01:41;101421.73;;;10.53;100.00
25869;BME280;13688;53.154;18.136;2022-10-31T20:07:04;101417.33;;;10.52;100.00
25869;BME280;13688;53.154;18.136;2022-10-31T20:12:27;101413.45;;;10.56;100.00
25869;BME280;13688;53.154;18.136;2022-10-31T20:17:49;101407.68;;;10.62;100.00
25869;BME280;13688;53.154;18.136;2022-10-31T20:23:12;101408.33;;;10.66;100.00
25869;BME280;13688;53.154;18.136;2022-10-31T20:28:35;101407.46;;;10.65;100.00
25869;BME280;13688;53.154;18.136;2022-10-31T20:33:58;101392.41;;;10.63;100.00
25869;BME280;13688;53.154;18.136;2022-10-31T20:39:21;101396.70;;;10.65;100.00
25869;BME280;13688;53.154;18.136;2022-10-31T20:44:45;101396.81;;;10.64;100.00
25869;BME280;13688;53.154;18.136;2022-10-31T20:50:11;101406.71;;;10.63;100.00
25869;BME280;13688;53.154;18.136;2022-10-31T20:55:33;101404.77;;;10.65;100.00
25869;BME280;13688;53.154;18.136;2022-10-31T21:00:56;101411.02;;;10.66;100.00
25869;BME280;13688;53.154;18.136;2022-10-31T21:06:20;101407.36;;;10.67;100.00
25869;BME280;13688;53.154;18.136;2022-10-31T21:11:43;101413.59;;;10.67;100.00
25869;BME280;13688;53.154;18.136;2022-10-31T21:17:07;101407.46;;;10.65;100.00
25869;BME280;13688;53.154;18.136;2022-10-31T21:22:30;101398.53;;;10.65;100.00
25869;BME280;13688;53.154;18.136;2022-10-31T21:27:52;101402.09;;;10.65;100.00
25869;BME280;13688;53.154;18.136;2022-10-31T21:33:14;101406.50;;;10.66;100.00
25869;BME280;13688;53.154;18.136;2022-10-31T21:38:37;101400.25;;;10.66;100.00
25869;BME280;13688;53.154;18.136;2022-10-31T21:44:00;101411.02;;;10.66;100.00
25869;BME280;13688;53.154;18.136;2022-10-31T21:49:22;101405.52;;;10.67;100.00
25869;BME280;13688;53.154;18.136;2022-10-31T21:54:44;101395.63;;;10.68;100.00
25869;BME280;13688;53.154;18.136;2022-10-31T22:00:07;101388.23;;;10.71;100.00
25869;BME280;13688;53.154;18.136;2022-10-31T22:05:29;101395.23;;;10.74;100.00
25869;BME280;13688;53.154;18.136;2022-10-31T22:10:52;101386.41;;;10.72;100.00
25869;BME280;13688;53.154;18.136;2022-10-31T22:16:21;101381.10;;;10.70;100.00
25869;BME280;13688;53.154;18.136;2022-10-31T22:21:46;101379.27;;;10.71;100.00
25869;BME280;13688;53.154;18.136;2022-10-31T22:27:09;101368.63;;;10.69;100.00
25869;BME280;13688;53.154;18.136;2022-10-31T22:32:31;101365.94;;;10.69;100.00
25869;BME280;13688;53.154;18.136;2022-10-31T22:37:54;101358.73;;;10.70;100.00
25869;BME280;13688;53.154;18.136;2022-10-31T22:43:16;101352.30;;;10.72;100.00
25869;BME280;13688;53.154;18.136;2022-10-31T22:48:48;101355.96;;;10.71;100.00
25869;BME280;13688;53.154;18.136;2022-10-31T22:54:14;101349.80;;;10.69;100.00
25869;BME280;13688;53.154;18.136;2022-10-31T22:59:36;101357.00;;;10.69;100.00
25869;BME280;13688;53.154;18.136;2022-10-31T23:04:59;101349.69;;;10.71;100.00
25869;BME280;13688;53.154;18.136;2022-10-31T23:10:23;101352.37;;;10.71;100.00
25869;BME280;13688;53.154;18.136;2022-10-31T23:15:48;101356.89;;;10.70;100.00
25869;BME280;13688;53.154;18.136;2022-10-31T23:21:12;101355.06;;;10.71;100.00
25869;BME280;13688;53.154;18.136;2022-10-31T23:26:53;101348.08;;;10.68;100.00
25869;BME280;13688;53.154;18.136;2022-10-31T23:32:28;101340.98;;;10.67;100.00
25869;BME280;13688;53.154;18.136;2022-10-31T23:37:51;101346.14;;;10.70;100.00
25869;BME280;13688;53.154;18.136;2022-10-31T23:43:14;101334.73;;;10.67;100.00
25869;BME280;13688;53.154;18.136;2022-10-31T23:48:36;101329.36;;;10.67;100.00
25869;BME280;13688;53.154;18.136;2022-10-31T23:53:59;101319.47;;;10.67;100.00
25869;BME280;13688;53.154;18.136;2022-10-31T23:59:21;101320.43;;;10.66;100.00
